Time;durP1;ratioP1;P1;durP2;ratioP2;P2;SDS_P1;SDS_P2;PMS_P1;PMS_P2;Temp;Humidity;BMP_temperature;BMP_pressure;BME280_temperature;BME280_humidity;BME280_pressure;Samples;Min_cycle;Max_cycle;Signal;HPM_P1;HPM_P2
2022/09/01 00:01:47;;;;;;;5.43;1.70;;;13.60;99.90;;;;;;5091391;27;20043;-45
2022/09/01 00:04:16;;;;;;;5.75;1.60;;;14.00;99.90;;;;;;5092608;28;20047;-46
2022/09/01 00:06:42;;;;;;;7.60;1.70;;;13.40;99.90;;;;;;5092245;28;20587;-43
2022/09/01 00:09:12;;;;;;;5.47;1.83;;;13.40;99.90;;;;;;5092972;28;20047;-46
2022/09/01 00:11:42;;;;;;;5.07;2.00;;;14.30;99.90;;;;;;5093349;28;20028;-45
2022/09/01 00:14:09;;;;;;;2.65;0.95;;;13.60;99.90;;;;;;5094106;28;20055;-39
2022/09/01 00:16:35;;;;;;;3.85;1.63;;;13.80;99.90;;;;;;5092211;28;20039;-39
2022/09/01 00:19:02;;;;;;;2.60;1.10;;;13.90;99.90;;;;;;5092718;28;20040;-39
2022/09/01 00:21:31;;;;;;;3.03;1.10;;;13.80;99.90;;;;;;5093861;28;20150;-39
2022/09/01 00:23:56;;;;;;;4.25;1.35;;;14.00;99.90;;;;;;5093723;28;20113;-40
2022/09/01 00:26:22;;;;;;;3.47;1.13;;;13.90;99.90;;;;;;5091968;28;20476;-39
2022/09/01 00:28:49;;;;;;;3.67;1.20;;;14.10;99.90;;;;;;5090925;28;20704;-44
2022/09/01 00:31:15;;;;;;;3.75;1.10;;;13.80;99.90;;;;;;5091643;28;20052;-47
2022/09/01 00:33:41;;;;;;;2.92;1.05;;;14.00;99.90;;;;;;5093068;28;20100;-46
2022/09/01 00:36:07;;;;;;;3.15;1.23;;;15.00;99.90;;;;;;5091629;28;20035;-44
2022/09/01 00:38:33;;;;;;;2.15;1.05;;;13.80;99.90;;;;;;5091662;28;20097;-42
2022/09/01 00:41:00;;;;;;;4.65;1.20;;;14.20;99.90;;;;;;5092897;28;20357;-45
2022/09/01 00:43:49;;;;;;;5.05;1.02;;;13.80;99.90;;;;;;5096311;27;20613;-45
2022/09/01 00:46:20;;;;;;;3.45;1.67;;;14.00;99.90;;;;;;5096112;27;20775;-46
2022/09/01 00:48:52;;;;;;;2.20;1.02;;;14.10;99.90;;;;;;5095070;27;20036;-47
2022/09/01 00:51:18;;;;;;;3.47;0.88;;;14.20;99.90;;;;;;5095437;28;20040;-45
2022/09/01 00:53:45;;;;;;;4.00;1.10;;;14.00;99.90;;;;;;5097238;27;20046;-45
2022/09/01 00:56:12;;;;;;;1.70;0.80;;;14.00;99.90;;;;;;5094912;27;20086;-44
2022/09/01 00:58:38;;;;;;;2.00;0.90;;;14.00;99.90;;;;;;5093168;27;20403;-44
2022/09/01 01:01:08;;;;;;;3.05;1.20;;;14.90;99.90;;;;;;5095003;27;20039;-44
2022/09/01 01:03:34;;;;;;;1.70;0.90;;;14.40;99.90;;;;;;5095152;27;20047;-46
2022/09/01 01:06:05;;;;;;;2.90;0.80;;;14.00;99.90;;;;;;5096380;27;20071;-47
2022/09/01 01:08:33;;;;;;;4.27;1.17;;;14.30;99.90;;;;;;5096005;27;20662;-47
2022/09/01 01:11:01;;;;;;;4.22;1.00;;;14.10;99.90;;;;;;5095278;27;20792;-47
2022/09/01 01:13:30;;;;;;;2.28;1.00;;;14.00;99.90;;;;;;5094235;27;20563;-46
2022/09/01 01:15:58;;;;;;;2.15;0.90;;;14.10;99.90;;;;;;5094933;27;20538;-47
2022/09/01 01:18:24;;;;;;;1.88;0.82;;;14.00;99.90;;;;;;5095695;27;20044;-42
2022/09/01 01:24:24;;;;;;;3.50;0.82;;;14.00;99.90;;;;;;5096222;27;20099;-45
2022/09/01 01:26:51;;;;;;;3.85;1.10;;;13.90;99.90;;;;;;5096203;27;20047;-44
2022/09/01 01:29:18;;;;;;;1.77;0.80;;;13.90;99.90;;;;;;5096664;27;20043;-44
2022/09/01 01:31:46;;;;;;;3.33;0.90;;;13.90;99.90;;;;;;5095160;28;20039;-46
2022/09/01 01:34:13;;;;;;;3.67;1.00;;;14.00;99.90;;;;;;5094930;28;20044;-42
2022/09/01 01:36:40;;;;;;;1.90;0.90;;;13.90;99.90;;;;;;5094939;28;20039;-45
2022/09/01 01:39:15;;;;;;;2.20;0.80;;;13.90;99.90;;;;;;5095036;27;21464;-47
2022/09/01 01:41:47;;;;;;;2.17;1.00;;;13.90;99.90;;;;;;5094678;28;20595;-42
2022/09/01 01:44:15;;;;;;;3.78;1.10;;;14.00;99.90;;;;;;5094569;27;20184;-38
2022/09/01 01:46:44;;;;;;;2.65;0.80;;;13.90;99.90;;;;;;5094235;27;20147;-38
2022/09/01 01:49:12;;;;;;;2.42;0.82;;;13.90;99.90;;;;;;5093940;27;20052;-39
2022/09/01 01:51:39;;;;;;;2.13;0.98;;;13.70;99.90;;;;;;5095796;27;20043;-41
2022/09/01 01:54:06;;;;;;;2.85;1.00;;;13.90;99.90;;;;;;5095578;28;20126;-39
2022/09/01 01:56:38;;;;;;;3.03;1.20;;;13.90;99.90;;;;;;5094951;27;20054;-39
2022/09/01 01:59:05;;;;;;;3.60;1.23;;;14.10;99.90;;;;;;5094654;28;20043;-39
2022/09/01 02:01:31;;;;;;;2.33;0.98;;;14.10;99.90;;;;;;5094225;27;20035;-39
2022/09/01 02:03:59;;;;;;;5.93;1.05;;;14.00;99.90;;;;;;5094741;28;20510;-39
2022/09/01 02:06:26;;;;;;;2.47;1.02;;;14.00;99.90;;;;;;5094263;27;20039;-39
2022/09/01 02:08:58;;;;;;;3.15;1.00;;;14.10;99.90;;;;;;5094041;28;20689;-40
2022/09/01 02:11:27;;;;;;;2.28;0.90;;;14.00;99.90;;;;;;5094045;27;20055;-39
2022/09/01 02:13:55;;;;;;;2.13;1.23;;;16.00;99.90;;;;;;5092544;27;20039;-38
2022/09/01 02:16:21;;;;;;;2.30;0.98;;;14.00;99.90;;;;;;5094235;27;20035;-38
2022/09/01 02:18:47;;;;;;;1.35;0.82;;;13.90;99.90;;;;;;5093700;27;20052;-39
2022/09/01 02:21:18;;;;;;;2.55;1.20;;;14.00;99.90;;;;;;5094972;27;20644;-38
2022/09/01 02:23:59;;;;;;;4.00;1.27;;;13.90;99.90;;;;;;5095972;27;20036;-39
2022/09/01 02:26:33;;;;;;;3.50;1.00;;;13.90;99.90;;;;;;5094892;27;20054;-39
2022/09/01 02:29:03;;;;;;;1.80;1.15;;;14.10;99.90;;;;;;5094184;27;20039;-39
2022/09/01 02:31:31;;;;;;;2.80;0.93;;;14.00;99.90;;;;;;5094300;27;20051;-39
2022/09/01 02:33:57;;;;;;;1.95;1.00;;;13.90;99.90;;;;;;5093920;27;20039;-39
2022/09/01 02:36:24;;;;;;;3.53;1.10;;;14.00;99.90;;;;;;5095413;27;20216;-39
2022/09/01 02:38:50;;;;;;;2.08;0.90;;;14.00;99.90;;;;;;5094710;27;20047;-39
2022/09/01 02:41:21;;;;;;;1.83;0.85;;;13.90;99.90;;;;;;5092967;27;20050;-40
2022/09/01 02:43:48;;;;;;;2.30;0.90;;;13.90;99.90;;;;;;5094065;28;20039;-39
2022/09/01 02:46:14;;;;;;;5.03;1.10;;;13.90;99.90;;;;;;5093310;27;21370;-39
2022/09/01 02:48:44;;;;;;;3.00;1.15;;;13.90;99.90;;;;;;5094929;27;20043;-39
2022/09/01 02:51:14;;;;;;;3.75;1.05;;;13.90;99.90;;;;;;5093062;27;20507;-39
2022/09/01 02:53:41;;;;;;;2.88;1.00;;;14.00;99.90;;;;;;5094064;27;20508;-39
2022/09/01 02:56:13;;;;;;;1.10;0.80;;;13.80;99.90;;;;;;5093882;27;20417;-40
2022/09/01 02:58:44;;;;;;;1.42;0.80;;;14.30;99.90;;;;;;5093657;28;20088;-39
2022/09/01 03:01:21;;;;;;;;;;;14.00;99.90;;;;;;5093935;27;20116;-40
2022/09/01 03:03:52;;;;;;;1.95;0.80;;;14.20;99.90;;;;;;5094010;27;19931;-40
2022/09/01 03:06:22;;;;;;;3.77;1.03;;;14.20;99.90;;;;;;5093240;27;20099;-40
2022/09/01 03:08:50;;;;;;;3.08;0.90;;;14.10;99.90;;;;;;5093603;27;20047;-39
2022/09/01 03:11:17;;;;;;;1.35;0.90;;;14.10;99.90;;;;;;5092950;27;20595;-40
2022/09/01 03:13:44;;;;;;;2.20;0.90;;;14.10;99.90;;;;;;5092459;27;20533;-39
2022/09/01 03:16:10;;;;;;;3.47;0.90;;;14.20;99.90;;;;;;5092760;27;20047;-40
2022/09/01 03:18:37;;;;;;;2.08;0.88;;;14.10;99.90;;;;;;5092103;28;21543;-39
2022/09/01 03:21:05;;;;;;;4.13;1.00;;;14.10;99.90;;;;;;5092399;27;20388;-38
2022/09/01 03:23:31;;;;;;;1.83;0.95;;;14.00;99.90;;;;;;5092611;28;20035;-41
2022/09/01 03:25:57;;;;;;;2.88;1.10;;;14.20;99.90;;;;;;5092370;28;20067;-39
2022/09/01 03:28:23;;;;;;;2.33;1.02;;;14.00;99.90;;;;;;5093672;28;20046;-39
2022/09/01 03:30:52;;;;;;;2.97;1.02;;;14.00;99.90;;;;;;5093236;27;20044;-40
2022/09/01 03:33:19;;;;;;;2.20;1.13;;;14.00;99.90;;;;;;5091895;28;20483;-39
2022/09/01 03:35:45;;;;;;;3.90;1.00;;;14.00;99.90;;;;;;5092346;28;20031;-39
2022/09/01 03:38:12;;;;;;;4.50;1.10;;;14.00;99.90;;;;;;5092149;27;20051;-40
2022/09/01 03:40:38;;;;;;;3.00;1.27;;;14.00;99.90;;;;;;5092286;27;20054;-40
2022/09/01 03:43:10;;;;;;;3.20;1.00;;;14.00;99.90;;;;;;5126168;27;20120;-40
2022/09/01 03:45:37;;;;;;;2.17;1.10;;;14.00;99.90;;;;;;5093424;27;20491;-39
2022/09/01 03:48:08;;;;;;;3.38;1.20;;;14.00;99.90;;;;;;5091735;28;20530;-40
2022/09/01 03:50:44;;;;;;;1.52;1.10;;;14.10;99.90;;;;;;5092261;28;20047;-39
2022/09/01 03:53:11;;;;;;;3.00;1.02;;;13.90;99.90;;;;;;5094183;27;20462;-38
2022/09/01 03:55:38;;;;;;;2.25;1.00;;;14.00;99.90;;;;;;5093414;28;20051;-38
2022/09/01 03:58:07;;;;;;;2.20;0.93;;;13.90;99.90;;;;;;5093675;27;20040;-38
2022/09/01 04:00:39;;;;;;;3.25;1.40;;;13.70;99.90;;;;;;5092651;27;20043;-38
2022/09/01 04:03:07;;;;;;;3.92;1.10;;;13.80;99.90;;;;;;5092590;28;20043;-38
2022/09/01 04:05:36;;;;;;;2.72;1.55;;;13.90;99.90;;;;;;5093184;28;20047;-38
2022/09/01 04:08:05;;;;;;;3.05;1.38;;;13.80;99.90;;;;;;5092932;28;20036;-38
2022/09/01 04:10:33;;;;;;;2.72;1.33;;;13.80;99.90;;;;;;5092625;28;20039;-38
2022/09/01 04:13:00;;;;;;;3.92;1.70;;;13.70;99.90;;;;;;5092700;28;20400;-39
2022/09/01 04:15:27;;;;;;;2.97;1.30;;;13.70;99.90;;;;;;5093815;28;20416;-40
2022/09/01 04:18:09;;;;;;;2.30;1.27;;;13.30;99.90;;;;;;5098023;27;20052;-38
2022/09/01 04:20:48;;;;;;;2.35;1.38;;;13.70;99.90;;;;;;5097042;28;20560;-38
2022/09/01 04:23:32;;;;;;;3.42;1.15;;;13.80;99.90;;;;;;5098741;28;20088;-38
2022/09/01 04:26:07;;;;;;;3.50;1.27;;;13.50;99.90;;;;;;5097286;27;20043;-39
2022/09/01 04:28:36;;;;;;;3.85;1.48;;;13.60;99.90;;;;;;5097525;27;20065;-38
2022/09/01 04:31:06;;;;;;;3.47;1.35;;;13.50;99.90;;;;;;5096834;27;20617;-39
2022/09/01 04:33:43;;;;;;;2.55;1.25;;;13.50;99.90;;;;;;5095952;27;20088;-38
2022/09/01 04:36:24;;;;;;;3.38;1.42;;;13.30;99.90;;;;;;5096554;27;20036;-38
2022/09/01 04:38:59;;;;;;;3.43;1.30;;;13.40;99.90;;;;;;5095771;28;20111;-38
2022/09/01 04:41:31;;;;;;;6.40;1.45;;;13.60;99.90;;;;;;5095707;28;20054;-38
2022/09/01 04:43:59;;;;;;;2.72;1.30;;;13.60;99.90;;;;;;5095907;27;20051;-38
2022/09/01 04:46:30;;;;;;;2.53;1.48;;;13.20;99.90;;;;;;5095628;28;20571;-39
2022/09/01 04:48:56;;;;;;;3.38;1.38;;;13.20;99.90;;;;;;5095510;27;20052;-38
2022/09/01 04:51:26;;;;;;;3.17;1.40;;;13.20;99.90;;;;;;5096277;27;20410;-38
2022/09/01 04:53:56;;;;;;;2.30;1.40;;;13.40;99.90;;;;;;5096496;27;20372;-38
2022/09/01 04:56:24;;;;;;;4.43;1.50;;;13.20;99.90;;;;;;5095455;27;20105;-38
2022/09/01 04:58:50;;;;;;;2.65;1.52;;;13.20;99.90;;;;;;5094767;27;20776;-38
2022/09/01 05:01:19;;;;;;;6.22;1.63;;;13.20;99.90;;;;;;5095838;27;20367;-39
2022/09/01 05:03:57;;;;;;;3.55;1.70;;;13.20;99.90;;;;;;5095379;27;20047;-38
2022/09/01 05:06:23;;;;;;;5.18;1.55;;;13.10;99.90;;;;;;5095382;27;20060;-38
2022/09/01 05:08:50;;;;;;;3.67;1.52;;;13.30;99.90;;;;;;5095570;28;20043;-38
2022/09/01 05:11:17;;;;;;;4.55;1.80;;;13.30;99.90;;;;;;5094965;27;20699;-38
2022/09/01 05:13:45;;;;;;;5.97;2.08;;;13.20;99.90;;;;;;5094762;27;20055;-38
2022/09/01 05:16:14;;;;;;;4.65;1.88;;;13.20;99.90;;;;;;5095272;27;20054;-38
2022/09/01 05:18:47;;;;;;;6.20;2.00;;;13.30;99.90;;;;;;5095132;28;20044;-38
2022/09/01 05:21:16;;;;;;;3.22;2.00;;;13.30;99.90;;;;;;5095754;28;20035;-38
2022/09/01 05:23:45;;;;;;;3.45;1.80;;;13.20;99.90;;;;;;5095981;27;20432;-38
2022/09/01 05:26:22;;;;;;;5.10;1.95;;;13.30;99.90;;;;;;5096019;27;20119;-38
2022/09/01 05:28:52;;;;;;;5.35;1.83;;;13.30;99.90;;;;;;5093705;27;20591;-38
2022/09/01 05:31:18;;;;;;;3.15;2.00;;;13.20;99.90;;;;;;5095486;27;20584;-38
2022/09/01 05:33:47;;;;;;;3.22;1.60;;;13.50;99.90;;;;;;5096646;27;20326;-38
2022/09/01 05:36:16;;;;;;;4.85;2.10;;;13.30;99.90;;;;;;5096579;27;20043;-38
2022/09/01 05:38:43;;;;;;;3.92;2.13;;;13.10;99.90;;;;;;5094875;27;20461;-38
2022/09/01 05:41:13;;;;;;;7.80;2.97;;;13.40;99.90;;;;;;5095086;27;20066;-38
2022/09/01 05:43:45;;;;;;;4.63;2.38;;;13.30;99.90;;;;;;5094743;27;20043;-40
2022/09/01 05:46:12;;;;;;;2.90;1.85;;;13.30;99.90;;;;;;5094214;27;20430;-38
2022/09/01 05:48:38;;;;;;;4.88;1.85;;;13.60;99.90;;;;;;5094646;27;20116;-39
2022/09/01 05:51:09;;;;;;;3.45;1.90;;;13.90;99.90;;;;;;5094868;27;20593;-46
2022/09/01 05:53:36;;;;;;;4.90;1.90;;;13.70;99.90;;;;;;5096271;28;20042;-46
2022/09/01 05:56:08;;;;;;;3.60;1.88;;;13.40;99.90;;;;;;5095373;27;20331;-44
2022/09/01 05:58:35;;;;;;;6.90;1.90;;;13.50;99.90;;;;;;5094162;28;20051;-43
2022/09/01 06:01:01;;;;;;;6.00;1.98;;;13.70;99.90;;;;;;5094655;27;20430;-44
2022/09/01 06:03:27;;;;;;;3.80;1.70;;;14.00;99.90;;;;;;5094353;27;20047;-48
2022/09/01 06:05:54;;;;;;;5.85;1.80;;;14.10;99.90;;;;;;5094820;27;20082;-43
2022/09/01 06:08:22;;;;;;;5.13;1.70;;;14.10;99.90;;;;;;5094653;27;20474;-42
2022/09/01 06:10:49;;;;;;;4.80;1.50;;;14.30;99.90;;;;;;5093733;28;20043;-46
2022/09/01 06:13:18;;;;;;;4.07;1.60;;;14.10;99.90;;;;;;5092489;27;20132;-45
2022/09/01 06:15:43;;;;;;;5.38;1.70;;;14.60;99.90;;;;;;5093805;27;20100;-43
2022/09/01 06:18:11;;;;;;;7.07;1.50;;;16.10;99.90;;;;;;5095299;27;20113;-48
2022/09/01 06:20:45;;;;;;;2.38;1.17;;;17.50;99.90;;;;;;5093136;27;20130;-44
2022/09/01 06:23:14;;;;;;;2.35;1.27;;;18.70;99.90;;;;;;5093833;27;20055;-45
2022/09/01 06:25:46;;;;;;;4.10;1.80;;;20.10;99.90;;;;;;5095394;28;20047;-47
2022/09/01 06:28:14;;;;;;;3.67;1.50;;;21.30;99.90;;;;;;5091986;27;20047;-44
2022/09/01 06:30:41;;;;;;;4.40;1.50;;;22.00;99.90;;;;;;5094771;27;20040;-46
2022/09/01 06:33:09;;;;;;;3.28;1.10;;;21.70;99.90;;;;;;5094451;27;20174;-44
2022/09/01 06:35:37;;;;;;;2.90;1.45;;;20.70;99.90;;;;;;5093017;28;20040;-45
2022/09/01 06:38:05;;;;;;;6.25;1.33;;;20.50;99.90;;;;;;5093594;27;20043;-45
2022/09/01 06:40:32;;;;;;;2.65;1.20;;;20.80;99.90;;;;;;5093849;27;20035;-46
2022/09/01 06:43:06;;;;;;;7.72;1.13;;;21.60;99.90;;;;;;5094330;27;20116;-45
2022/09/01 06:45:43;;;;;;;6.40;1.52;;;22.30;99.90;;;;;;5092505;27;20463;-46
2022/09/01 06:48:14;;;;;;;6.45;1.38;;;22.70;99.90;;;;;;5094026;27;20411;-44
2022/09/01 06:50:41;;;;;;;3.30;1.00;;;23.20;99.90;;;;;;5093531;27;20051;-46
2022/09/01 06:53:09;;;;;;;3.90;1.27;;;22.80;99.90;;;;;;5094125;27;20083;-47
2022/09/01 06:55:39;;;;;;;3.72;1.02;;;22.10;99.90;;;;;;5094640;27;21025;-49
2022/09/01 06:58:06;;;;;;;3.90;1.50;;;22.20;99.90;;;;;;5094145;27;20575;-47
2022/09/01 07:00:40;;;;;;;4.85;1.25;;;22.60;99.90;;;;;;5094787;27;20094;-44
2022/09/01 07:03:08;;;;;;;3.22;1.30;;;24.00;99.90;;;;;;5094040;28;20032;-45
2022/09/01 07:05:38;;;;;;;3.22;1.23;;;24.30;99.90;;;;;;5093966;27;20161;-48
2022/09/01 07:08:08;;;;;;;4.60;1.35;;;24.70;99.90;;;;;;5092538;28;20115;-46
2022/09/01 07:10:44;;;;;;;4.47;1.73;;;25.00;99.90;;;;;;5093792;27;20718;-45
2022/09/01 07:13:16;;;;;;;6.55;1.60;;;24.50;99.90;;;;;;5094190;27;20058;-47
2022/09/01 07:15:42;;;;;;;4.13;1.30;;;23.20;99.90;;;;;;5092055;28;20055;-44
2022/09/01 07:18:09;;;;;;;5.20;1.35;;;22.60;99.90;;;;;;5093633;28;20039;-46
2022/09/01 07:20:37;;;;;;;3.35;1.40;;;21.60;99.90;;;;;;5092192;28;20704;-45
2022/09/01 07:23:05;;;;;;;5.00;1.40;;;21.20;99.90;;;;;;5093670;28;20560;-43
2022/09/01 07:25:35;;;;;;;4.55;1.50;;;21.10;99.90;;;;;;5093644;27;20039;-47
2022/09/01 07:28:00;;;;;;;4.43;1.20;;;21.00;99.90;;;;;;5092721;27;20046;-47
2022/09/01 07:30:27;;;;;;;3.72;1.50;;;20.10;99.90;;;;;;5093159;28;20070;-44
2022/09/01 07:32:54;;;;;;;8.50;1.63;;;20.20;99.90;;;;;;5093632;27;20058;-49
2022/09/01 07:35:21;;;;;;;6.03;1.40;;;20.30;99.90;;;;;;5092577;27;20044;-48
2022/09/01 07:37:47;;;;;;;3.10;1.42;;;20.50;99.90;;;;;;5092159;28;20635;-45
2022/09/01 07:40:17;;;;;;;3.45;1.73;;;20.60;99.90;;;;;;5092117;27;21930;-46
2022/09/01 07:42:46;;;;;;;4.30;1.30;;;20.70;99.90;;;;;;5092475;28;20054;-45
2022/09/01 07:45:14;;;;;;;7.38;1.15;;;20.90;99.90;;;;;;5094139;27;20190;-46
2022/09/01 07:47:40;;;;;;;8.52;1.40;;;20.90;99.90;;;;;;5093059;28;20058;-47
2022/09/01 07:50:09;;;;;;;2.53;1.08;;;21.00;99.90;;;;;;5092716;28;20047;-46
2022/09/01 07:52:41;;;;;;;3.88;0.98;;;20.70;99.90;;;;;;5092695;28;20046;-45
2022/09/01 07:55:14;;;;;;;2.80;1.20;;;20.30;99.90;;;;;;5094350;28;20043;-44
2022/09/01 07:57:41;;;;;;;3.60;1.10;;;20.30;99.90;;;;;;5092371;28;20050;-48
2022/09/01 08:00:14;;;;;;;5.25;1.17;;;20.60;99.90;;;;;;5093147;27;20284;-43
2022/09/01 08:02:45;;;;;;;6.70;1.00;;;20.80;99.90;;;;;;5092705;28;20916;-46
2022/09/01 08:05:16;;;;;;;5.22;0.95;;;20.70;99.90;;;;;;5092662;28;20044;-45
2022/09/01 08:07:43;;;;;;;3.47;1.27;;;20.80;99.90;;;;;;5092866;28;20065;-43
2022/09/01 08:10:08;;;;;;;2.92;1.45;;;20.70;99.90;;;;;;5092704;28;20039;-44
2022/09/01 08:12:34;;;;;;;2.70;1.10;;;20.40;99.90;;;;;;5091665;28;20100;-44
2022/09/01 08:15:02;;;;;;;3.95;1.40;;;20.00;99.90;;;;;;5093777;28;20563;-45
2022/09/01 08:17:28;;;;;;;5.18;1.20;;;20.10;99.90;;;;;;5092713;28;20119;-45
2022/09/01 08:19:54;;;;;;;2.55;1.17;;;19.70;99.90;;;;;;5093093;28;20105;-45
2022/09/01 08:22:22;;;;;;;3.53;1.13;;;19.70;99.90;;;;;;5093002;28;20046;-45
2022/09/01 08:24:49;;;;;;;3.85;1.27;;;19.80;99.90;;;;;;5093575;27;20035;-47
2022/09/01 08:27:15;;;;;;;3.67;1.15;;;19.70;99.90;;;;;;5090635;28;20453;-46
2022/09/01 08:29:41;;;;;;;3.88;1.00;;;19.70;99.90;;;;;;5092636;28;20087;-47
2022/09/01 08:32:06;;;;;;;2.72;1.23;;;19.80;99.90;;;;;;5093113;28;20044;-46
2022/09/01 08:34:33;;;;;;;2.83;1.30;;;19.80;99.90;;;;;;5091274;28;20074;-45
2022/09/01 08:36:58;;;;;;;2.55;1.20;;;19.70;99.90;;;;;;5091650;28;20294;-48
2022/09/01 08:39:24;;;;;;;3.88;1.23;;;19.70;99.90;;;;;;5092390;28;20048;-45
2022/09/01 08:42:01;;;;;;;2.22;1.13;;;19.60;99.90;;;;;;5091368;27;20048;-43
2022/09/01 08:44:51;;;;;;;2.80;0.90;;;19.40;99.90;;;;;;5091550;28;20730;-45
2022/09/01 08:47:18;;;;;;;4.93;1.30;;;19.50;99.90;;;;;;5091831;28;20059;-44
2022/09/01 08:49:45;;;;;;;3.38;1.30;;;17.80;99.90;;;;;;5091731;28;20051;-45
2022/09/01 08:52:23;;;;;;;4.18;1.10;;;19.40;99.90;;;;;;5091671;28;20217;-47
2022/09/01 08:55:24;;;;;;;6.70;1.20;;;19.50;99.90;;;;;;5092508;28;20130;-47
2022/09/01 08:57:54;;;;;;;2.50;1.00;;;19.70;99.90;;;;;;5091603;28;20091;-45
2022/09/01 09:00:23;;;;;;;3.60;1.15;;;19.60;99.90;;;;;;5091156;28;20044;-46
2022/09/01 09:03:15;;;;;;;3.05;0.98;;;19.60;99.90;;;;;;5094265;27;20086;-46
2022/09/01 09:06:07;;;;;;;3.90;1.17;;;19.60;99.90;;;;;;5095701;27;20036;-47
2022/09/01 09:08:56;;;;;;;2.20;0.82;;;19.30;99.90;;;;;;5095265;28;20040;-43
2022/09/01 09:11:50;;;;;;;2.88;1.02;;;19.60;99.90;;;;;;5095006;28;20108;-43
2022/09/01 09:14:30;;;;;;;4.50;1.20;;;19.80;99.90;;;;;;5096564;28;20048;-45
2022/09/01 09:16:56;;;;;;;3.42;1.00;;;19.90;99.90;;;;;;5095138;28;20039;-44
2022/09/01 09:19:43;;;;;;;6.65;1.15;;;19.60;99.90;;;;;;5095067;27;20387;-43
2022/09/01 09:22:12;;;;;;;3.83;0.98;;;19.90;99.90;;;;;;5096184;27;20050;-47
2022/09/01 09:25:09;;;;;;;2.70;1.00;;;19.90;99.90;;;;;;5096671;27;20035;-47
2022/09/01 09:27:38;;;;;;;3.08;1.00;;;19.80;99.90;;;;;;5095952;27;20100;-44
2022/09/01 09:30:31;;;;;;;3.72;1.27;;;19.80;99.90;;;;;;5096160;27;20040;-44
2022/09/01 09:33:03;;;;;;;5.88;0.90;;;19.90;99.90;;;;;;5094384;27;20085;-46
2022/09/01 09:35:45;;;;;;;2.80;1.00;;;20.10;99.90;;;;;;5095394;27;20043;-46
2022/09/01 09:38:17;;;;;;;3.95;0.90;;;20.30;99.90;;;;;;5095821;27;20044;-46
2022/09/01 09:41:15;;;;;;;4.07;1.23;;;20.90;99.90;;;;;;5094723;27;20046;-47
2022/09/01 09:44:05;;;;;;;2.17;0.50;;;21.10;99.90;;;;;;5095168;27;20600;-44
2022/09/01 09:46:31;;;;;;;1.80;0.77;;;20.90;99.90;;;;;;5093294;28;20031;-47
2022/09/01 09:49:06;;;;;;;2.38;0.95;;;21.10;99.90;;;;;;5093381;27;20459;-45
2022/09/01 09:51:32;;;;;;;2.25;0.90;;;20.70;99.90;;;;;;5094610;27;20112;-47
2022/09/01 09:54:13;;;;;;;1.70;0.80;;;21.00;99.90;;;;;;5095628;27;20063;-48
2022/09/01 09:56:40;;;;;;;1.95;0.70;;;20.80;99.90;;;;;;5095064;27;20439;-44
2022/09/01 09:59:32;;;;;;;3.55;0.88;;;20.90;99.90;;;;;;5093959;27;20089;-46
2022/09/01 10:02:13;;;;;;;4.50;0.88;;;21.00;99.90;;;;;;5094366;28;20040;-46
2022/09/01 10:04:40;;;;;;;4.47;0.90;;;21.00;99.90;;;;;;5095096;27;20592;-44
2022/09/01 10:07:33;;;;;;;2.45;0.90;;;21.10;99.90;;;;;;5093772;27;20050;-46
2022/09/01 10:10:02;;;;;;;3.35;1.10;;;21.50;99.90;;;;;;5094845;27;20035;-48
2022/09/01 10:12:29;;;;;;;3.25;0.80;;;21.70;99.90;;;;;;5092839;28;20532;-46
2022/09/01 10:15:09;;;;;;;4.20;1.02;;;21.80;99.90;;;;;;5094221;27;20043;-46
2022/09/01 10:17:40;;;;;;;2.17;0.80;;;22.00;99.90;;;;;;5095176;27;20043;-45
2022/09/01 10:20:16;;;;;;;1.98;0.90;;;21.80;99.90;;;;;;5094961;27;20049;-48
2022/09/01 10:22:42;;;;;;;2.78;0.90;;;21.80;99.90;;;;;;5093830;27;20119;-48
2022/09/01 10:25:25;;;;;;;4.43;1.02;;;21.10;99.90;;;;;;5095790;27;20063;-45
2022/09/01 10:28:08;;;;;;;2.45;1.00;;;22.10;99.90;;;;;;5093942;27;20188;-48
2022/09/01 10:30:41;;;;;;;2.35;0.77;;;22.30;99.90;;;;;;5094045;27;21861;-47
2022/09/01 10:33:07;;;;;;;3.33;0.70;;;22.30;99.90;;;;;;5094407;27;20071;-47
2022/09/01 10:35:38;;;;;;;2.80;0.90;;;22.60;99.90;;;;;;5095126;27;20404;-47
2022/09/01 10:38:08;;;;;;;1.70;0.80;;;22.90;99.90;;;;;;5095158;27;20046;-47
2022/09/01 10:40:39;;;;;;;1.98;0.73;;;24.90;99.90;;;;;;5094725;27;20038;-47
2022/09/01 10:43:24;;;;;;;4.70;0.75;;;23.00;99.90;;;;;;5095152;27;20511;-44
2022/09/01 10:45:50;;;;;;;3.42;0.85;;;23.10;99.90;;;;;;5094037;28;20050;-46
2022/09/01 10:48:29;;;;;;;3.67;0.82;;;23.30;99.90;;;;;;5074247;27;20530;-48
2022/09/01 10:51:13;;;;;;;1.77;0.70;;;23.30;99.90;;;;;;5094321;27;20066;-44
2022/09/01 10:53:48;;;;;;;4.78;0.88;;;23.00;99.90;;;;;;5095108;27;20495;-44
2022/09/01 10:56:13;;;;;;;2.00;0.75;;;22.60;99.90;;;;;;5094614;27;20130;-47
2022/09/01 10:59:21;;;;;;;1.83;0.60;;;22.10;99.90;;;;;;5094052;27;20527;-44
2022/09/01 11:01:47;;;;;;;2.08;0.88;;;22.10;99.90;;;;;;5081780;27;20151;-45
2022/09/01 11:04:16;;;;;;;2.90;0.63;;;22.10;99.90;;;;;;5093203;28;20159;-44
2022/09/01 11:06:44;;;;;;;2.58;0.80;;;22.60;99.90;;;;;;5094620;27;20574;-44
2022/09/01 11:09:24;;;;;;;2.72;0.80;;;23.10;99.90;;;;;;5095042;27;20342;-48
2022/09/01 11:12:10;;;;;;;1.90;0.63;;;23.40;99.90;;;;;;5093136;27;20040;-45
2022/09/01 11:14:56;;;;;;;2.90;0.70;;;23.60;99.90;;;;;;5092780;27;20112;-48
2022/09/01 11:17:24;;;;;;;1.80;0.77;;;23.60;99.90;;;;;;5093497;27;20035;-44
2022/09/01 11:19:54;;;;;;;1.10;0.55;;;23.40;99.90;;;;;;5093679;27;20051;-47
2022/09/01 11:22:44;;;;;;;2.78;0.60;;;23.10;99.90;;;;;;5093164;28;20043;-46
2022/09/01 11:25:32;;;;;;;4.00;0.90;;;22.70;99.90;;;;;;5091812;28;20073;-46
2022/09/01 11:28:11;;;;;;;2.78;0.80;;;22.50;99.90;;;;;;5092869;28;20042;-46
2022/09/01 11:30:54;;;;;;;1.23;0.60;;;22.50;99.90;;;;;;5088522;27;20119;-45
2022/09/01 11:33:41;;;;;;;3.85;0.60;;;22.80;99.90;;;;;;5092300;28;20042;-44
2022/09/01 11:36:12;;;;;;;1.80;0.60;;;23.20;99.90;;;;;;5094437;27;20046;-47
2022/09/01 11:38:55;;;;;;;2.75;0.70;;;23.60;99.90;;;;;;5093557;28;20130;-45
2022/09/01 11:41:23;;;;;;;4.57;0.77;;;24.00;99.50;;;;;;5093088;27;20403;-48
2022/09/01 11:43:56;;;;;;;3.90;0.52;;;23.90;99.30;;;;;;5094619;27;20039;-49
2022/09/01 11:46:34;;;;;;;2.92;0.60;;;23.80;99.30;;;;;;5093366;27;20043;-48
2022/09/01 11:49:06;;;;;;;2.80;0.50;;;24.50;99.70;;;;;;5092216;27;20043;-46
2022/09/01 11:51:45;;;;;;;3.00;0.70;;;24.20;98.70;;;;;;5092894;27;20134;-44
2022/09/01 11:54:12;;;;;;;1.25;0.60;;;24.50;97.80;;;;;;5094417;28;20047;-46
2022/09/01 11:56:38;;;;;;;1.85;0.70;;;24.50;97.50;;;;;;5093313;28;20122;-48
2022/09/01 11:59:04;;;;;;;2.20;0.70;;;24.00;97.70;;;;;;5093663;28;20049;-47
2022/09/01 12:01:34;;;;;;;2.55;0.68;;;24.50;97.50;;;;;;5093989;28;20412;-48
2022/09/01 12:04:25;;;;;;;2.25;0.60;;;24.30;97.00;;;;;;5093437;28;20130;-46
2022/09/01 12:07:06;;;;;;;3.40;0.70;;;24.50;96.80;;;;;;5093242;28;20047;-46
2022/09/01 12:09:41;;;;;;;1.80;0.90;;;24.10;96.70;;;;;;5094199;28;20050;-46
2022/09/01 12:12:30;;;;;;;2.50;0.70;;;24.00;96.90;;;;;;5092109;28;20043;-45
2022/09/01 12:15:15;;;;;;;2.33;0.60;;;23.80;97.00;;;;;;5091769;28;20051;-47
2022/09/01 12:17:41;;;;;;;3.22;0.70;;;23.70;97.30;;;;;;5091430;28;20105;-49
2022/09/01 12:20:27;;;;;;;2.35;0.88;;;23.80;96.60;;;;;;5091378;28;20487;-46
2022/09/01 12:22:54;;;;;;;4.35;0.55;;;23.80;97.40;;;;;;5091982;28;20050;-47
2022/09/01 12:25:29;;;;;;;4.63;0.80;;;23.90;97.40;;;;;;5092388;28;20385;-47
2022/09/01 12:27:56;;;;;;;1.95;0.70;;;23.90;97.00;;;;;;5092291;28;20046;-47
2022/09/01 12:30:23;;;;;;;2.15;0.80;;;23.90;97.40;;;;;;5093057;28;20073;-47
2022/09/01 12:32:49;;;;;;;2.72;0.63;;;23.90;97.30;;;;;;5091888;28;20100;-48
2022/09/01 12:35:24;;;;;;;5.78;0.90;;;24.00;96.50;;;;;;5091167;28;20106;-50
2022/09/01 12:37:51;;;;;;;1.85;0.65;;;23.70;96.20;;;;;;5092116;27;20132;-48
2022/09/01 12:40:34;;;;;;;2.05;0.50;;;24.10;95.90;;;;;;5095615;27;20112;-48
2022/09/01 12:43:00;;;;;;;1.60;0.68;;;23.50;95.90;;;;;;5096404;27;20890;-45
2022/09/01 12:45:45;;;;;;;4.13;0.52;;;23.50;96.30;;;;;;5096336;28;20428;-50
2022/09/01 12:48:29;;;;;;;2.45;0.65;;;23.10;96.60;;;;;;5096458;27;20047;-48
2022/09/01 12:50:57;;;;;;;4.75;0.73;;;22.80;97.10;;;;;;5096705;28;20055;-46
2022/09/01 12:53:26;;;;;;;1.75;0.60;;;22.90;97.50;;;;;;5096932;27;20041;-48
2022/09/01 12:56:16;;;;;;;3.20;0.68;;;22.60;97.10;;;;;;5097482;28;20138;-45
2022/09/01 12:58:47;;;;;;;1.85;0.63;;;22.30;97.70;;;;;;5096873;28;20039;-49
2022/09/01 13:01:31;;;;;;;1.42;0.52;;;22.60;98.40;;;;;;5096232;27;20142;-46
2022/09/01 13:04:20;;;;;;;2.72;0.70;;;22.90;97.60;;;;;;5097406;28;20100;-47
2022/09/01 13:06:47;;;;;;;1.60;0.63;;;23.00;96.30;;;;;;5097625;27;20044;-49
2022/09/01 13:09:12;;;;;;;2.85;0.80;;;23.20;97.10;;;;;;5097308;28;20036;-48
2022/09/01 13:11:40;;;;;;;2.10;0.70;;;23.40;97.50;;;;;;5097134;27;20518;-46
2022/09/01 13:14:07;;;;;;;2.78;0.77;;;23.70;97.00;;;;;;5097391;27;20040;-48